createdAt,value
2017-04-09T00:00:10.965Z,20.96
2017-04-09T00:00:39.254Z,20.98
2017-04-09T00:01:07.474Z,21
2017-04-09T00:01:35.730Z,20.88
2017-04-09T00:02:03.914Z,20.88
2017-04-09T00:02:32.120Z,20.97
2017-04-09T00:03:00.291Z,20.93
2017-04-09T00:03:28.549Z,20.93
2017-04-09T00:03:56.842Z,20.97
2017-04-09T00:04:25.099Z,20.94
2017-04-09T00:04:53.202Z,20.97
2017-04-09T00:05:21.504Z,20.93
2017-04-09T00:05:49.837Z,20.98
2017-04-09T00:06:18.196Z,21.03
2017-04-09T00:06:46.625Z,21.03
2017-04-09T00:07:14.912Z,20.97
2017-04-09T00:07:42.974Z,21.03
2017-04-09T00:08:11.158Z,21.04
2017-04-09T00:08:39.249Z,21.01
2017-04-09T00:09:07.535Z,21.03
2017-04-09T00:09:35.761Z,20.97
2017-04-09T00:10:04.319Z,21.01
2017-04-09T00:10:32.699Z,21.09
2017-04-09T00:11:00.946Z,21.04
2017-04-09T00:11:29.388Z,21.01
2017-04-09T00:11:57.655Z,21.01
2017-04-09T00:12:25.858Z,21.09
2017-04-09T00:12:54.430Z,21.04
2017-04-09T00:13:22.634Z,21.01
2017-04-09T00:13:50.612Z,21.01
2017-04-09T00:14:18.849Z,21.03
2017-04-09T00:14:47.250Z,21.01
2017-04-09T00:15:15.631Z,21.03
2017-04-09T00:15:43.937Z,21.06
2017-04-09T00:16:12.259Z,21.01
2017-04-09T00:16:40.514Z,21.06
2017-04-09T00:17:08.767Z,21.01
2017-04-09T00:17:37.125Z,21.03
2017-04-09T00:18:05.384Z,21.06
2017-04-09T00:18:33.718Z,21.04
2017-04-09T00:19:02.074Z,21.03
2017-04-09T00:19:30.338Z,21.06
2017-04-09T00:19:58.386Z,21
2017-04-09T00:20:26.670Z,21.09
2017-04-09T00:20:55.100Z,21.01
2017-04-09T00:21:23.317Z,21.01
2017-04-09T00:21:51.488Z,21.04
2017-04-09T00:22:19.866Z,21.04
2017-04-09T00:22:48.209Z,21.01
2017-04-09T00:23:16.675Z,21.06
2017-04-09T00:23:44.966Z,21.03
2017-04-09T00:24:13.213Z,21.03
2017-04-09T00:24:42.199Z,20.98
2017-04-09T00:25:10.507Z,21.04
2017-04-09T00:25:38.940Z,21.01
2017-04-09T00:26:07.267Z,20.98
2017-04-09T00:26:35.783Z,21
2017-04-09T00:27:04.175Z,21.03
2017-04-09T00:27:32.252Z,21
2017-04-09T00:28:00.677Z,21.06
2017-04-09T00:28:28.882Z,21.13
2017-04-09T00:28:57.123Z,21.08
2017-04-09T00:29:25.317Z,21
2017-04-09T00:29:53.659Z,21.03
2017-04-09T00:30:21.821Z,20.97
2017-04-09T00:30:50.029Z,21
2017-04-09T00:31:18.279Z,21.04
2017-04-09T00:31:46.538Z,21.01
2017-04-09T00:32:14.784Z,21.11
2017-04-09T00:32:42.840Z,20.98
2017-04-09T00:33:11.109Z,21.04
2017-04-09T00:33:39.357Z,21.01
2017-04-09T00:34:07.807Z,21.03
2017-04-09T00:34:35.905Z,20.96
2017-04-09T00:35:04.007Z,20.98
2017-04-09T00:35:32.564Z,20.98
2017-04-09T00:36:00.859Z,20.98
2017-04-09T00:36:29.120Z,21
2017-04-09T00:36:57.275Z,20.85
2017-04-09T00:37:25.593Z,20.85
2017-04-09T00:37:53.899Z,20.9
2017-04-09T00:38:22.017Z,20.86
2017-04-09T00:38:50.199Z,20.88
2017-04-09T00:39:18.592Z,20.86
2017-04-09T00:39:46.919Z,20.85
2017-04-09T00:40:15.040Z,20.85
2017-04-09T00:40:43.281Z,20.86
2017-04-09T00:41:11.522Z,20.88
2017-04-09T00:41:39.912Z,20.86
2017-04-09T00:42:08.113Z,20.93
2017-04-09T00:42:36.254Z,20.88
2017-04-09T00:43:04.500Z,20.88
2017-04-09T00:43:32.768Z,20.85
2017-04-09T00:44:01.002Z,20.9
2017-04-09T00:44:29.356Z,20.88
2017-04-09T00:44:57.646Z,20.83
2017-04-09T00:45:25.724Z,20.83
2017-04-09T00:45:53.957Z,20.91
2017-04-09T00:46:22.273Z,20.86
2017-04-09T00:46:50.364Z,20.88
2017-04-09T00:47:18.559Z,20.82
2017-04-09T00:47:46.630Z,20.9
2017-04-09T00:48:14.718Z,20.88
2017-04-09T00:48:42.921Z,20.91
2017-04-09T00:49:11.054Z,20.9
2017-04-09T00:49:39.211Z,20.88
2017-04-09T00:50:07.440Z,20.88
2017-04-09T00:50:35.693Z,20.86
2017-04-09T00:51:04.027Z,20.91
2017-04-09T00:51:32.252Z,20.91
2017-04-09T00:52:00.460Z,20.88
2017-04-09T00:52:28.794Z,20.86
2017-04-09T00:52:57.039Z,20.97
2017-04-09T00:53:25.555Z,20.85
2017-04-09T00:53:53.730Z,20.88
2017-04-09T00:54:21.732Z,20.85
2017-04-09T00:54:49.888Z,20.86
2017-04-09T00:55:18.130Z,20.88
2017-04-09T00:55:46.326Z,20.88
2017-04-09T00:56:14.600Z,20.82
2017-04-09T00:56:42.924Z,20.86
2017-04-09T00:57:10.951Z,20.88
2017-04-09T00:57:39.325Z,20.97
2017-04-09T00:58:07.610Z,20.88
2017-04-09T00:58:35.922Z,20.83
2017-04-09T00:59:04.160Z,20.85
2017-04-09T00:59:32.403Z,20.86
2017-04-09T01:00:00.757Z,20.85
2017-04-09T01:00:28.958Z,20.83
2017-04-09T01:00:57.238Z,20.79
2017-04-09T01:01:25.506Z,20.76
2017-04-09T01:01:53.751Z,20.72
2017-04-09T01:02:22.180Z,20.74
2017-04-09T01:02:50.367Z,20.74
2017-04-09T01:03:18.564Z,20.74
2017-04-09T01:03:46.955Z,20.76
2017-04-09T01:04:15.230Z,20.78
2017-04-09T01:04:43.464Z,20.76
2017-04-09T01:05:11.512Z,20.74
2017-04-09T01:05:39.745Z,20.82
2017-04-09T01:06:07.922Z,20.78
2017-04-09T01:06:36.200Z,20.76
2017-04-09T01:07:04.510Z,20.78
2017-04-09T01:07:32.626Z,20.82
2017-04-09T01:08:00.713Z,20.82
2017-04-09T01:08:29.084Z,20.78
2017-04-09T01:08:57.430Z,20.79
2017-04-09T01:09:25.660Z,20.79
2017-04-09T01:09:53.812Z,20.79
2017-04-09T01:10:22.061Z,20.81
2017-04-09T01:10:50.273Z,20.81
2017-04-09T01:11:18.407Z,20.82
2017-04-09T01:11:46.581Z,20.76
2017-04-09T01:12:14.889Z,20.78
2017-04-09T01:12:43.023Z,20.74
2017-04-09T01:13:11.321Z,20.79
2017-04-09T01:13:39.490Z,20.68
2017-04-09T01:14:07.765Z,20.68
2017-04-09T01:14:35.974Z,20.67
2017-04-09T01:15:04.238Z,20.57
2017-04-09T01:15:32.582Z,20.66
2017-04-09T01:16:00.876Z,20.6
2017-04-09T01:16:28.953Z,20.6
2017-04-09T01:16:57.403Z,20.66
2017-04-09T01:17:25.641Z,20.71
2017-04-09T01:17:53.850Z,20.67
2017-04-09T01:18:22.248Z,20.71
2017-04-09T01:18:50.633Z,20.68
2017-04-09T01:19:18.907Z,20.76
2017-04-09T01:19:47.011Z,20.81
2017-04-09T01:20:15.238Z,20.74
2017-04-09T01:20:43.538Z,20.79
2017-04-09T01:21:12.483Z,20.72
2017-04-09T01:21:40.679Z,20.81
2017-04-09T01:22:08.768Z,20.74
2017-04-09T01:22:37.119Z,20.74
2017-04-09T01:23:05.432Z,20.75
2017-04-09T01:23:34.321Z,20.82
2017-04-09T01:24:02.582Z,20.78
2017-04-09T01:24:30.744Z,20.82
2017-04-09T01:24:59.094Z,20.82
2017-04-09T01:25:27.165Z,20.85
2017-04-09T01:25:55.417Z,20.86
2017-04-09T01:26:23.699Z,20.9
2017-04-09T01:26:52.043Z,20.82
2017-04-09T01:27:20.463Z,20.76
2017-04-09T01:27:48.834Z,20.76
2017-04-09T01:28:17.370Z,20.82
2017-04-09T01:28:45.763Z,20.82
2017-04-09T01:29:14.041Z,20.76
2017-04-09T01:29:42.256Z,20.76
2017-04-09T01:30:10.364Z,20.75
2017-04-09T01:30:38.632Z,20.78
2017-04-09T01:31:06.805Z,20.76
2017-04-09T01:31:35.055Z,20.79
2017-04-09T01:32:03.503Z,20.75
2017-04-09T01:32:31.798Z,20.81
2017-04-09T01:32:59.919Z,20.78
2017-04-09T01:33:28.333Z,20.78
2017-04-09T01:33:56.700Z,20.74
2017-04-09T01:34:24.918Z,20.78
2017-04-09T01:34:53.189Z,20.79
2017-04-09T01:35:21.605Z,20.81
2017-04-09T01:35:49.899Z,20.74
2017-04-09T01:36:18.178Z,20.78
2017-04-09T01:36:46.438Z,20.76
2017-04-09T01:37:14.629Z,20.78
2017-04-09T01:37:43.619Z,20.76
2017-04-09T01:38:11.679Z,20.82
2017-04-09T01:38:39.771Z,20.79
2017-04-09T01:39:07.889Z,20.79
2017-04-09T01:39:36.246Z,20.82
2017-04-09T01:40:04.552Z,20.85
2017-04-09T01:40:32.916Z,20.78
2017-04-09T01:41:00.932Z,20.88
2017-04-09T01:41:29.067Z,20.85
2017-04-09T01:41:57.373Z,20.83
2017-04-09T01:42:25.517Z,20.94
2017-04-09T01:42:53.788Z,20.85
2017-04-09T01:43:22.017Z,20.88
2017-04-09T01:43:50.403Z,20.96
2017-04-09T01:44:18.603Z,20.91
2017-04-09T01:44:46.912Z,20.88
2017-04-09T01:45:15.234Z,20.97
2017-04-09T01:45:43.503Z,20.91
2017-04-09T01:46:11.720Z,21.01
2017-04-09T01:46:39.996Z,21.01
2017-04-09T01:47:08.295Z,21.04
2017-04-09T01:47:36.982Z,21
2017-04-09T01:48:05.289Z,20.98
2017-04-09T01:48:33.551Z,21.04
2017-04-09T01:49:01.715Z,21.03
2017-04-09T01:49:29.986Z,20.97
2017-04-09T01:49:58.354Z,20.98
2017-04-09T01:50:26.620Z,21.06
2017-04-09T01:50:54.720Z,21.04
2017-04-09T01:51:22.924Z,20.96
2017-04-09T01:51:51.093Z,21.01
2017-04-09T01:52:19.277Z,21.01
2017-04-09T01:52:47.417Z,21.04
2017-04-09T01:53:15.565Z,21.01
2017-04-09T01:53:43.968Z,21.11
2017-04-09T01:54:12.168Z,21.08
2017-04-09T01:54:40.226Z,21.09
2017-04-09T01:55:09.043Z,21.06
2017-04-09T01:55:37.243Z,21.08
2017-04-09T01:56:05.487Z,21.04
2017-04-09T01:56:33.928Z,21.11
2017-04-09T01:57:02.241Z,21.11
2017-04-09T01:57:30.484Z,21.12
2017-04-09T01:57:58.958Z,21.09
2017-04-09T01:58:27.146Z,21.08
2017-04-09T01:58:55.430Z,21.12
2017-04-09T01:59:23.639Z,21.16
2017-04-09T01:59:52.032Z,21.13
2017-04-09T02:00:20.251Z,21.16
2017-04-09T02:00:48.569Z,21.12
2017-04-09T02:01:16.943Z,21.22
2017-04-09T02:01:45.249Z,21.06
2017-04-09T02:02:13.546Z,21.15
2017-04-09T02:02:41.623Z,21.15
2017-04-09T02:03:09.711Z,21.21
2017-04-09T02:03:38.560Z,21.09
2017-04-09T02:04:06.802Z,21.13
2017-04-09T02:04:35.238Z,21.21
2017-04-09T02:05:03.556Z,21.18
2017-04-09T02:05:31.866Z,21.15
2017-04-09T02:06:00.128Z,21.15
2017-04-09T02:06:28.411Z,21.15
2017-04-09T02:06:56.474Z,21.16
2017-04-09T02:07:24.834Z,21.16
2017-04-09T02:07:53.187Z,21.12
2017-04-09T02:08:21.439Z,21.15
2017-04-09T02:08:49.771Z,21.15
2017-04-09T02:09:17.981Z,21.15
2017-04-09T02:09:46.555Z,21.15
2017-04-09T02:10:14.799Z,21.15
2017-04-09T02:10:43.196Z,21.16
2017-04-09T02:11:11.315Z,21.15
2017-04-09T02:11:39.535Z,21.18
2017-04-09T02:12:07.884Z,21.28
2017-04-09T02:12:36.099Z,21.09
2017-04-09T02:13:04.110Z,21.15
2017-04-09T02:13:32.316Z,21.16
2017-04-09T02:14:01.103Z,21.21
2017-04-09T02:14:29.127Z,21.15
2017-04-09T02:14:57.435Z,21.15
2017-04-09T02:15:25.787Z,21.16
2017-04-09T02:15:54.173Z,21.19
2017-04-09T02:16:22.329Z,21.15
2017-04-09T02:16:50.651Z,21.13
2017-04-09T02:17:18.762Z,21.15
2017-04-09T02:17:47.075Z,21.18
2017-04-09T02:18:15.282Z,21.16
2017-04-09T02:18:43.433Z,21.15
2017-04-09T02:19:11.697Z,21.08
2017-04-09T02:19:40.133Z,21.18
2017-04-09T02:20:08.519Z,21.12
2017-04-09T02:20:36.964Z,21.19
2017-04-09T02:21:05.310Z,21.15
2017-04-09T02:21:33.665Z,21.09
2017-04-09T02:22:03.104Z,21
2017-04-09T02:22:31.483Z,21.11
2017-04-09T02:22:59.678Z,21.06
2017-04-09T02:23:28.017Z,21.08
2017-04-09T02:23:57.106Z,20.97
2017-04-09T02:24:25.487Z,21.01
2017-04-09T02:24:53.793Z,21.03
2017-04-09T02:25:21.992Z,21.04
2017-04-09T02:25:50.385Z,21
2017-04-09T02:26:18.657Z,20.93
2017-04-09T02:26:46.945Z,21
2017-04-09T02:27:15.119Z,21
2017-04-09T02:27:43.333Z,20.94
2017-04-09T02:28:11.652Z,20.94
2017-04-09T02:28:39.792Z,21
2017-04-09T02:29:08.045Z,20.9
2017-04-09T02:29:36.384Z,20.88
2017-04-09T02:30:04.626Z,20.93
2017-04-09T02:30:32.734Z,20.88
2017-04-09T02:31:00.859Z,20.93
2017-04-09T02:31:29.115Z,20.86
2017-04-09T02:31:57.320Z,20.98
2017-04-09T02:32:25.552Z,20.85
2017-04-09T02:32:53.644Z,20.93
2017-04-09T02:33:22.054Z,20.91
2017-04-09T02:33:50.146Z,20.96
2017-04-09T02:34:18.253Z,20.96
2017-04-09T02:34:46.448Z,21
2017-04-09T02:35:14.813Z,21
2017-04-09T02:35:43.098Z,21.01
2017-04-09T02:36:11.449Z,21.03
2017-04-09T02:36:39.545Z,20.98
2017-04-09T02:37:07.563Z,21
2017-04-09T02:37:35.917Z,21.03
2017-04-09T02:38:03.848Z,21.03
2017-04-09T02:38:31.911Z,21.04
2017-04-09T02:39:00.053Z,20.98
2017-04-09T02:39:28.237Z,21.15
2017-04-09T02:39:56.444Z,21.09
2017-04-09T02:40:24.746Z,21.08
2017-04-09T02:40:52.916Z,21.09
2017-04-09T02:41:21.086Z,21.12
2017-04-09T02:41:49.495Z,21.12
2017-04-09T02:42:17.763Z,20.98
2017-04-09T02:42:46.096Z,20.98
2017-04-09T02:43:14.366Z,21.06
2017-04-09T02:43:42.722Z,21.04
2017-04-09T02:44:11.075Z,21.04
2017-04-09T02:44:39.351Z,20.98
2017-04-09T02:45:07.485Z,21.01
2017-04-09T02:45:35.664Z,20.94
2017-04-09T02:46:03.801Z,21
2017-04-09T02:46:32.006Z,20.96
2017-04-09T02:47:00.173Z,20.93
2017-04-09T02:47:28.118Z,20.94
2017-04-09T02:47:56.155Z,20.97
2017-04-09T02:48:24.421Z,20.93
2017-04-09T02:48:52.576Z,20.93
2017-04-09T02:49:20.815Z,20.96
2017-04-09T02:49:49.061Z,20.93
2017-04-09T02:50:17.350Z,20.86
2017-04-09T02:50:45.554Z,20.98
2017-04-09T02:51:13.791Z,21
2017-04-09T02:51:41.807Z,21
2017-04-09T02:52:10.293Z,21.01
2017-04-09T02:52:38.571Z,21.04
2017-04-09T02:53:06.952Z,20.98
2017-04-09T02:53:35.220Z,21.04
2017-04-09T02:54:03.761Z,21.01
2017-04-09T02:54:31.875Z,20.98
2017-04-09T02:55:00.115Z,21.06
2017-04-09T02:55:28.327Z,21.09
2017-04-09T02:55:56.631Z,21.01
2017-04-09T02:56:24.770Z,20.97
2017-04-09T02:56:53.142Z,21.08
2017-04-09T02:57:21.349Z,21.01
2017-04-09T02:57:49.398Z,21.15
2017-04-09T02:58:17.643Z,21.06
2017-04-09T02:58:46.049Z,21.12
2017-04-09T02:59:14.453Z,21.11
2017-04-09T02:59:42.831Z,21.12
2017-04-09T03:00:11.154Z,21.11
2017-04-09T03:00:39.569Z,21.11
2017-04-09T03:01:07.868Z,21.11
2017-04-09T03:01:36.286Z,21.12
2017-04-09T03:02:04.709Z,21.12
2017-04-09T03:02:33.054Z,21.06
2017-04-09T03:03:01.388Z,21.12
2017-04-09T03:03:29.569Z,21.15
2017-04-09T03:03:57.859Z,21.12
2017-04-09T03:04:26.658Z,21.12
2017-04-09T03:04:54.954Z,21.11
2017-04-09T03:05:23.113Z,21.08
2017-04-09T03:05:51.174Z,21.01
2017-04-09T03:06:19.481Z,21.08
2017-04-09T03:06:47.812Z,21.01
2017-04-09T03:07:16.288Z,21.01
2017-04-09T03:07:44.551Z,21.04
2017-04-09T03:08:12.828Z,20.98
2017-04-09T03:08:41.056Z,21.01
2017-04-09T03:09:09.227Z,20.91
2017-04-09T03:09:37.491Z,20.86
2017-04-09T03:10:05.549Z,20.94
2017-04-09T03:10:33.791Z,20.93
2017-04-09T03:11:01.908Z,20.98
2017-04-09T03:11:30.269Z,20.91
2017-04-09T03:11:58.596Z,20.82
2017-04-09T03:12:26.717Z,20.85
2017-04-09T03:12:54.980Z,20.88
2017-04-09T03:13:23.298Z,20.86
2017-04-09T03:13:51.663Z,20.78
2017-04-09T03:14:19.965Z,20.88
2017-04-09T03:14:48.240Z,20.76
2017-04-09T03:15:16.322Z,20.79
2017-04-09T03:15:44.461Z,20.85
2017-04-09T03:16:12.860Z,20.81
2017-04-09T03:16:41.044Z,20.86
2017-04-09T03:17:09.248Z,20.81
2017-04-09T03:17:37.445Z,20.83
2017-04-09T03:18:05.722Z,20.83
2017-04-09T03:18:34.034Z,20.88
2017-04-09T03:19:02.390Z,20.91
2017-04-09T03:19:30.938Z,20.86
2017-04-09T03:19:59.189Z,20.9
2017-04-09T03:20:27.536Z,20.86
2017-04-09T03:20:55.889Z,20.88
2017-04-09T03:21:24.355Z,20.9
2017-04-09T03:21:52.738Z,20.9
2017-04-09T03:22:21.198Z,20.96
2017-04-09T03:22:49.431Z,20.86
2017-04-09T03:23:17.688Z,20.86
2017-04-09T03:23:45.957Z,20.85
2017-04-09T03:24:14.266Z,20.94
2017-04-09T03:24:42.524Z,20.96
2017-04-09T03:25:10.753Z,20.9
2017-04-09T03:25:39.038Z,20.97
2017-04-09T03:26:07.326Z,20.94
2017-04-09T03:26:35.577Z,20.96
2017-04-09T03:27:04.069Z,20.91
2017-04-09T03:27:32.339Z,20.94
2017-04-09T03:28:00.566Z,20.9
2017-04-09T03:28:28.674Z,20.86
2017-04-09T03:28:56.999Z,20.98
2017-04-09T03:29:25.240Z,20.86
2017-04-09T03:29:53.329Z,20.86
2017-04-09T03:30:21.503Z,20.83
2017-04-09T03:30:49.690Z,20.9
2017-04-09T03:31:17.922Z,20.97
2017-04-09T03:31:46.107Z,20.88
2017-04-09T03:32:14.543Z,20.88
2017-04-09T03:32:42.905Z,20.86
2017-04-09T03:33:10.947Z,20.86
2017-04-09T03:33:39.158Z,20.86
2017-04-09T03:34:07.492Z,20.81
2017-04-09T03:34:35.788Z,20.86
2017-04-09T03:35:03.824Z,20.86
2017-04-09T03:35:31.982Z,20.86
2017-04-09T03:36:00.669Z,20.86
2017-04-09T03:36:28.835Z,20.81
2017-04-09T03:36:57.118Z,20.91
2017-04-09T03:37:25.590Z,20.82
2017-04-09T03:37:53.758Z,20.88
2017-04-09T03:38:21.951Z,20.78
2017-04-09T03:38:49.981Z,20.78
2017-04-09T03:39:18.075Z,20.78
2017-04-09T03:39:46.352Z,20.83
2017-04-09T03:40:14.663Z,20.74
2017-04-09T03:40:42.959Z,20.72
2017-04-09T03:41:11.198Z,20.67
2017-04-09T03:41:39.345Z,20.68
2017-04-09T03:42:07.649Z,20.67
2017-04-09T03:42:35.978Z,20.72
2017-04-09T03:43:04.182Z,20.74
2017-04-09T03:43:32.526Z,20.68
2017-04-09T03:44:00.869Z,20.71
2017-04-09T03:44:29.306Z,20.71
2017-04-09T03:44:57.626Z,20.71
2017-04-09T03:45:25.742Z,20.71
2017-04-09T03:45:54.036Z,20.74
2017-04-09T03:46:22.295Z,20.78
2017-04-09T03:46:50.372Z,20.74
2017-04-09T03:47:18.704Z,20.79
2017-04-09T03:47:47.046Z,20.79
2017-04-09T03:48:15.298Z,20.78
2017-04-09T03:48:43.505Z,20.76
2017-04-09T03:49:11.600Z,20.82
2017-04-09T03:49:39.593Z,20.78
2017-04-09T03:50:07.947Z,20.74
2017-04-09T03:50:36.141Z,20.74
2017-04-09T03:51:04.245Z,20.74
2017-04-09T03:51:32.505Z,20.76
2017-04-09T03:52:00.624Z,20.85
2017-04-09T03:52:28.674Z,20.82
2017-04-09T03:52:56.890Z,20.82
2017-04-09T03:53:25.014Z,20.81
2017-04-09T03:53:53.272Z,20.76
2017-04-09T03:54:21.587Z,20.81
2017-04-09T03:54:49.750Z,20.83
2017-04-09T03:55:17.858Z,20.81
2017-04-09T03:55:46.089Z,20.81
2017-04-09T03:56:14.335Z,20.81
2017-04-09T03:56:42.576Z,20.82
2017-04-09T03:57:10.633Z,20.85
2017-04-09T03:57:38.631Z,20.88
2017-04-09T03:58:06.641Z,20.79
2017-04-09T03:58:34.791Z,20.91
2017-04-09T03:59:03.039Z,20.85
2017-04-09T03:59:31.359Z,20.86
2017-04-09T03:59:59.446Z,20.81
2017-04-09T04:00:27.664Z,20.91
2017-04-09T04:00:55.890Z,20.85
2017-04-09T04:01:24.107Z,20.91
2017-04-09T04:01:52.299Z,20.9
2017-04-09T04:02:20.589Z,20.88
2017-04-09T04:02:48.698Z,20.85
2017-04-09T04:03:16.754Z,20.88
2017-04-09T04:03:45.036Z,20.86
2017-04-09T04:04:13.212Z,20.79
2017-04-09T04:04:41.591Z,20.83
2017-04-09T04:05:09.707Z,20.74
2017-04-09T04:05:37.960Z,20.76
2017-04-09T04:06:06.232Z,20.71
2017-04-09T04:06:34.350Z,20.74
2017-04-09T04:07:02.636Z,20.68
2017-04-09T04:07:31.001Z,20.58
2017-04-09T04:07:59.326Z,20.71
2017-04-09T04:08:27.559Z,20.58
2017-04-09T04:08:55.934Z,20.6
2017-04-09T04:09:24.060Z,20.56
2017-04-09T04:09:52.457Z,20.67
2017-04-09T04:10:20.639Z,20.72
2017-04-09T04:10:48.785Z,20.68
2017-04-09T04:11:16.895Z,20.68
2017-04-09T04:11:45.014Z,20.71
2017-04-09T04:12:13.290Z,20.72
2017-04-09T04:12:41.500Z,20.76
2017-04-09T04:13:09.775Z,20.68
2017-04-09T04:13:37.872Z,20.71
2017-04-09T04:14:06.052Z,20.71
2017-04-09T04:14:34.457Z,20.66
2017-04-09T04:15:02.650Z,20.68
2017-04-09T04:15:30.680Z,20.68
2017-04-09T04:15:58.971Z,20.66
2017-04-09T04:16:27.241Z,20.68
2017-04-09T04:16:55.398Z,20.72
2017-04-09T04:17:23.560Z,20.67
2017-04-09T04:17:51.747Z,20.72
2017-04-09T04:18:20.023Z,20.72
2017-04-09T04:18:48.150Z,20.72
2017-04-09T04:19:16.299Z,20.74
2017-04-09T04:19:44.565Z,20.68
2017-04-09T04:20:12.684Z,20.64
2017-04-09T04:20:40.857Z,20.64
2017-04-09T04:21:09.064Z,20.58
2017-04-09T04:21:37.174Z,20.61
2017-04-09T04:22:05.381Z,20.56
2017-04-09T04:22:33.541Z,20.57
2017-04-09T04:23:01.815Z,20.54
2017-04-09T04:23:29.961Z,20.54
2017-04-09T04:23:58.034Z,20.51
2017-04-09T04:24:26.194Z,20.46
2017-04-09T04:24:54.361Z,20.46
2017-04-09T04:25:22.513Z,20.53
2017-04-09T04:25:50.678Z,20.46
2017-04-09T04:26:18.890Z,20.46
2017-04-09T04:26:47.041Z,20.57
2017-04-09T04:27:15.180Z,20.54
2017-04-09T04:27:43.288Z,20.51
2017-04-09T04:28:11.395Z,20.56
2017-04-09T04:28:39.521Z,20.49
2017-04-09T04:29:07.645Z,20.57
2017-04-09T04:29:35.774Z,20.44
2017-04-09T04:30:04.123Z,20.48
2017-04-09T04:30:32.181Z,20.46
2017-04-09T04:31:00.435Z,20.41
2017-04-09T04:31:28.510Z,20.42
2017-04-09T04:31:56.665Z,20.48
2017-04-09T04:32:24.806Z,20.46
2017-04-09T04:32:52.769Z,20.44
2017-04-09T04:33:20.841Z,20.48
2017-04-09T04:33:49.052Z,20.4
2017-04-09T04:34:17.289Z,20.51
2017-04-09T04:34:45.547Z,20.42
2017-04-09T04:35:13.679Z,20.49
2017-04-09T04:35:41.526Z,20.51
2017-04-09T04:36:09.535Z,20.46
2017-04-09T04:36:37.701Z,20.48
2017-04-09T04:37:05.932Z,20.46
2017-04-09T04:37:34.024Z,20.37
2017-04-09T04:38:02.152Z,20.42
2017-04-09T04:38:30.330Z,20.35
2017-04-09T04:38:58.426Z,20.35
2017-04-09T04:39:26.694Z,20.32
2017-04-09T04:39:55.058Z,20.29
2017-04-09T04:40:23.172Z,20.41
2017-04-09T04:40:51.407Z,20.37
2017-04-09T04:41:19.696Z,20.41
2017-04-09T04:41:47.774Z,20.3
2017-04-09T04:42:16.011Z,20.3
2017-04-09T04:42:44.157Z,20.38
2017-04-09T04:43:12.389Z,20.4
2017-04-09T04:43:40.602Z,20.46
2017-04-09T04:44:08.727Z,20.34
2017-04-09T04:44:36.923Z,20.34
2017-04-09T04:45:05.239Z,20.29
2017-04-09T04:45:33.475Z,20.35
2017-04-09T04:46:01.609Z,20.3
2017-04-09T04:46:29.804Z,20.29
2017-04-09T04:46:57.949Z,20.34
2017-04-09T04:47:26.127Z,20.3
2017-04-09T04:47:54.255Z,20.26
2017-04-09T04:48:22.392Z,20.4
2017-04-09T04:48:50.598Z,20.3
2017-04-09T04:49:18.811Z,20.34
2017-04-09T04:49:46.962Z,20.41
2017-04-09T04:50:15.208Z,20.37
2017-04-09T04:50:43.122Z,20.27
2017-04-09T04:51:11.339Z,20.34
2017-04-09T04:51:39.616Z,20.32
2017-04-09T04:52:07.704Z,20.29
2017-04-09T04:52:35.849Z,20.3
2017-04-09T04:53:04.009Z,20.3
2017-04-09T04:53:32.142Z,20.35
2017-04-09T04:54:00.380Z,20.38
2017-04-09T04:54:28.453Z,20.3
2017-04-09T04:54:56.597Z,20.29
2017-04-09T04:55:24.910Z,20.27
2017-04-09T04:55:52.942Z,20.29
2017-04-09T04:56:20.900Z,20.3
2017-04-09T04:56:49.155Z,20.3
2017-04-09T04:57:17.182Z,20.25
2017-04-09T04:57:45.404Z,20.3
2017-04-09T04:58:13.416Z,20.35
2017-04-09T04:58:41.633Z,20.35
2017-04-09T04:59:09.493Z,20.23
2017-04-09T04:59:37.717Z,20.32
2017-04-09T05:00:05.960Z,20.29
2017-04-09T05:00:34.032Z,20.26
2017-04-09T05:01:02.227Z,20.25
2017-04-09T05:01:30.523Z,20.26
2017-04-09T05:01:58.680Z,20.23
2017-04-09T05:02:26.812Z,20.25
2017-04-09T05:02:54.987Z,20.19
2017-04-09T05:03:23.112Z,20.16
2017-04-09T05:03:51.255Z,20.23
2017-04-09T05:04:19.334Z,20.18
2017-04-09T05:04:47.463Z,20.19
2017-04-09T05:05:15.729Z,20.23
2017-04-09T05:05:43.880Z,20.25
2017-04-09T05:06:12.122Z,20.26
2017-04-09T05:06:40.357Z,20.22
2017-04-09T05:07:08.659Z,20.25
2017-04-09T05:07:36.863Z,20.32
2017-04-09T05:08:05.096Z,20.32
2017-04-09T05:08:33.229Z,20.25
2017-04-09T05:09:01.492Z,20.29
2017-04-09T05:09:29.726Z,20.37
2017-04-09T05:09:57.830Z,20.4
2017-04-09T05:10:26.194Z,20.35
2017-04-09T05:10:54.475Z,20.34
2017-04-09T05:11:22.602Z,20.35
2017-04-09T05:11:50.810Z,20.41
2017-04-09T05:12:18.960Z,20.4
2017-04-09T05:12:47.187Z,20.42
2017-04-09T05:13:15.419Z,20.38
2017-04-09T05:13:43.552Z,20.38
2017-04-09T05:14:11.832Z,20.4
2017-04-09T05:14:39.779Z,20.46
2017-04-09T05:15:07.991Z,20.46
2017-04-09T05:15:36.373Z,20.35
2017-04-09T05:16:04.505Z,20.38
2017-04-09T05:16:32.751Z,20.4
2017-04-09T05:17:00.948Z,20.29
2017-04-09T05:17:29.181Z,20.35
2017-04-09T05:17:57.335Z,20.44
2017-04-09T05:18:25.558Z,20.46
2017-04-09T05:18:53.802Z,20.48
2017-04-09T05:19:21.907Z,20.46
2017-04-09T05:19:50.039Z,20.49
2017-04-09T05:20:18.233Z,20.46
2017-04-09T05:20:46.360Z,20.51
2017-04-09T05:21:14.594Z,20.49
2017-04-09T05:21:42.821Z,20.42
2017-04-09T05:22:11.004Z,20.42
2017-04-09T05:22:39.172Z,20.44
2017-04-09T05:23:07.333Z,20.42
2017-04-09T05:23:35.572Z,20.38
2017-04-09T05:24:03.706Z,20.46
2017-04-09T05:24:31.894Z,20.51
2017-04-09T05:24:59.946Z,20.51
2017-04-09T05:25:28.301Z,20.53
2017-04-09T05:25:56.470Z,20.56
2017-04-09T05:26:24.522Z,20.57
2017-04-09T05:26:52.650Z,20.49
2017-04-09T05:27:20.782Z,20.57
2017-04-09T05:27:48.925Z,20.58
2017-04-09T05:28:17.158Z,20.61
2017-04-09T05:28:45.228Z,20.56
2017-04-09T05:29:13.334Z,20.42
2017-04-09T05:29:41.480Z,20.48
2017-04-09T05:30:09.685Z,20.56
2017-04-09T05:30:38.120Z,20.54
2017-04-09T05:31:06.267Z,20.58
2017-04-09T05:31:34.286Z,20.56
2017-04-09T05:32:02.432Z,20.51
2017-04-09T05:32:30.577Z,20.48
2017-04-09T05:32:58.708Z,20.51
2017-04-09T05:33:26.898Z,20.46
2017-04-09T05:33:55.111Z,20.57
2017-04-09T05:34:22.980Z,20.44
2017-04-09T05:34:51.059Z,20.57
2017-04-09T05:35:19.292Z,20.64
2017-04-09T05:35:47.699Z,20.6
2017-04-09T05:36:15.756Z,20.57
2017-04-09T05:36:44.006Z,20.63
2017-04-09T05:37:12.186Z,20.57
2017-04-09T05:37:40.356Z,20.56
2017-04-09T05:38:08.544Z,20.56
2017-04-09T05:38:36.658Z,20.46
2017-04-09T05:39:04.788Z,20.54
2017-04-09T05:39:32.921Z,20.51
2017-04-09T05:40:01.057Z,20.46
2017-04-09T05:40:29.232Z,20.46
2017-04-09T05:40:57.497Z,20.44
2017-04-09T05:41:25.635Z,20.44
2017-04-09T05:41:53.790Z,20.46
2017-04-09T05:42:21.821Z,20.46
2017-04-09T05:42:49.938Z,20.42
2017-04-09T05:43:18.073Z,20.44
2017-04-09T05:43:46.324Z,20.38
2017-04-09T05:44:14.445Z,20.4
2017-04-09T05:44:42.492Z,20.41
2017-04-09T05:45:10.689Z,20.4
2017-04-09T05:45:38.759Z,20.41
2017-04-09T05:46:06.933Z,20.35
2017-04-09T05:46:35.080Z,20.38
2017-04-09T05:47:03.209Z,20.27
2017-04-09T05:47:31.327Z,20.3
2017-04-09T05:47:59.500Z,20.3
2017-04-09T05:48:27.736Z,20.34
2017-04-09T05:48:55.967Z,20.37
2017-04-09T05:49:24.088Z,20.4
2017-04-09T05:49:52.215Z,20.27
2017-04-09T05:50:20.185Z,20.32
2017-04-09T05:50:48.210Z,20.34
2017-04-09T05:51:16.410Z,20.26
2017-04-09T05:51:44.574Z,20.3
2017-04-09T05:52:12.484Z,20.27
2017-04-09T05:52:40.503Z,20.25
2017-04-09T05:53:08.620Z,20.29
2017-04-09T05:53:36.874Z,20.25
2017-04-09T05:54:05.150Z,20.27
2017-04-09T05:54:33.285Z,20.32
2017-04-09T05:55:01.525Z,20.27
2017-04-09T05:55:29.788Z,20.32
2017-04-09T05:55:58.064Z,20.32
2017-04-09T05:56:26.233Z,20.26
2017-04-09T05:56:54.381Z,20.27
2017-04-09T05:57:22.658Z,20.27
2017-04-09T05:57:50.796Z,20.26
2017-04-09T05:58:19.017Z,20.29
2017-04-09T05:58:47.141Z,20.25
2017-04-09T05:59:15.367Z,20.38
2017-04-09T05:59:43.525Z,20.37
2017-04-09T06:00:11.711Z,20.32
2017-04-09T06:00:40.044Z,20.34
2017-04-09T06:01:08.147Z,20.4
2017-04-09T06:01:36.217Z,20.34
2017-04-09T06:02:04.369Z,20.35
2017-04-09T06:02:32.585Z,20.34
2017-04-09T06:03:00.726Z,20.3
2017-04-09T06:03:28.869Z,20.34
2017-04-09T06:03:57.009Z,20.37
2017-04-09T06:04:25.252Z,20.41
2017-04-09T06:04:53.460Z,20.37